Weather observations for the past three days for
Baker Municipal Airport
Imperial (Metric)
Date Time (pdt) Wind (mph) Vis. (mi.) Weather Sky Cond. Temperature (ºF) Relative Humidity Wind Chill (°F) Heat Index (°F) Pressure Precipitation (in)
Air Dwpt 6 hour altimeter (in) sea level (mb) 1 hr 3 hr 6 hr
Max. Min.
06 02:53 NE 5 10.00 Fair CLR 41 37.9 89% 38 30 1014.9
06 01:53 S 6 10.00 Fair CLR 43 37.9 82% 40 30 1014.7
06 00:53 S 5 10.00 Fair CLR 43 37.9 82% 41 29.99 1014.5
05 23:53 SE 3 10.00 Fair CLR 48.9 41 74% 29.97 1013.5
05 22:53 NW 10 10.00 Fair CLR 51.1 41 72 50 69% 29.96 1013.0
05 21:53 NW 9 10.00 Fair CLR 52 39.9 64% 29.96 1013.0
05 20:53 N 9 10.00 Fair CLR 55 37.9 53% 29.94 1012.6
05 19:53 NW 10 10.00 Fair CLR 61 37.9 43% 29.91 1011.3
05 18:53 NW 17 G 24 10.00 Fair CLR 66.9 37.9 35% 29.89 1010.6
05 17:53 NW 17 G 26 10.00 Fair CLR 70 41 35% 29.88 1010.3
05 16:53 NW 22 G 31 10.00 Mostly Cloudy and Breezy FEW075 BKN095 73 41 73.9 70 32% 29.87 1010.3
05 15:53 NW 23 G 31 10.00 A Few Clouds and Breezy FEW110 73.9 42.1 32% 29.87 1010.3
05 14:53 N 16 G 30 10.00 Fair CLR 73.9 45 36% 29.88 1010.6
05 13:53 NW 16 10.00 Fair CLR 73 39.9 30% 29.89 1010.6
05 12:53 N 16 G 28 10.00 Fair CLR 73 41 32% 29.89 1010.7
05 11:53 NW 13 G 25 10.00 Fair CLR 72 39.9 31% 29.89 1010.5
05 10:53 NW 14 10.00 Fair CLR 71.1 42.1 71.1 44.1 35% 29.9 1010.6
05 09:53 NW 13 10.00 Fair CLR 68 44.1 42% 29.9 1010.6
05 08:53 W 9 10.00 Fair CLR 63 46 54% 29.89 1010.8
05 07:53 SW 5 10.00 Fair CLR 57.9 42.1 56% 29.89 1010.8
05 06:53 SW 6 10.00 Fair CLR 53.1 39.9 61% 29.88 1010.2
05 05:53 Vrbl 3 10.00 Fair CLR 50 39 66% 29.85 1009.4
05 04:53 SW 8 10.00 Fair CLR 44.1 37.9 54 39.9 79% 40 29.84 1009.0
05 03:53 SW 5 10.00 Fair CLR 43 37.9 82% 41 29.83 1008.7
05 02:53 S 3 10.00 Fair CLR 39.9 37 89% 29.82 1008.6
05 01:53 SW 3 10.00 Fair CLR 46 37.9 73% 29.82 1008.3
05 00:53 SW 5 10.00 Fair CLR 46.9 39 74% 45 29.83 1008.4
04 23:53 Calm 10.00 Fair CLR 53.1 37.9 57% 29.82 1007.9
04 22:53 NW 10 10.00 Fair CLR 54 37.9 73.9 53.1 55% 29.81 1007.4
04 21:53 NW 12 10.00 Fair CLR 55.9 37.9 51% 29.82 1007.8
04 20:53 N 15 10.00 Fair CLR 59 37 44% 29.8 1007.6
04 19:53 NW 16 10.00 Fair CLR 62.1 39.9 44% 29.77 1006.7
04 18:53 NW 17 10.00 Fair CLR 68 39 35% 29.76 1006.7
04 17:53 NW 17 G 26 10.00 Fair CLR 70 39 32% 29.77 1007.1
04 16:53 NW 18 G 26 10.00 Fair CLR 73.9 36 77 72 25% 29.77 1006.7
04 15:53 NW 20 G 29 10.00 Fair CLR 75 37 25% 77 29.77 1006.6
04 14:53 NW 20 G 28 10.00 Fair CLR 75.9 39 26% 77 29.79 1007.3
04 13:53 NW 22 G 35 10.00 Fair and Breezy CLR 75.9 39.9 27% 77 29.8 1007.4
04 12:53 NW 20 G 30 10.00 Fair CLR 75 37.9 26% 77 29.81 1007.8
04 11:53 N 16 10.00 Fair CLR 75 39.9 28% 77 29.82 1007.9
04 10:53 NW 17 10.00 Fair CLR 72 39.9 72 36 31% 29.83 1008.7
04 09:53 NW 14 10.00 Fair CLR 69.1 39 33% 29.84 1009.0
04 08:53 W 5 10.00 Fair CLR 59 39.9 49% 29.86 1009.8
04 07:53 Calm 10.00 Fair CLR 53.1 42.1 66% 29.87 1010.2
04 06:53 Calm 10.00 Fair CLR 43 37 80% 29.87 1010.4
04 05:53 S 3 10.00 Fair CLR 39.9 33.1 77% 29.86 1009.9
04 04:53 Calm 10.00 Fair CLR 41 33.1 53.1 39 73% 29.85 1009.5
04 03:53 Calm 10.00 Fair CLR 46 34 63% 29.86 1009.2
04 02:53 SW 5 10.00 Fair CLR 43 35.1 74% 41 29.85 1009.2
04 01:53 S 5 10.00 Fair CLR 43 34 71% 41 29.86 1009.5
04 00:53 SE 3 10.00 Fair CLR 44.1 35.1 71% 29.86 1009.9
03 23:53 SW 5 10.00 Fair CLR 53.1 35.1 51% 29.87 1009.8
03 22:53 SW 6 10.00 Fair CLR 48.9 37.9 75.9 46.9 66% 47 29.87 1010.3
03 21:53 NW 7 10.00 Fair CLR 52 37.9 59% 29.88 1010.5
03 20:53 NW 12 10.00 Fair CLR 59 37.9 46% 29.86 1010.0
03 19:53 NW 12 10.00 Fair CLR 62.1 37.9 41% 29.85 1009.8
03 18:53 NW 14 10.00 Fair CLR 69.1 37.9 32% 29.85 1010.0
03 17:53 N 16 G 26 10.00 Fair CLR 73.9 35.1 24% 29.86 1010.1
03 16:53 N 15 G 25 10.00 Fair CLR 75.9 37.9 78.1 66 25% 77 29.86 1010.1
03 15:53 N 15 10.00 Fair CLR 77 34 21% 77 29.88 1010.6
03 14:53 N 12 G 22 10.00 Fair CLR 77 32 19% 77 29.91 1011.7
03 13:53 N 15 10.00 Fair CLR 77 33.1 20% 77 29.93 1012.4
03 12:53 W 7 10.00 Fair CLR 73.9 42.1 32% 29.95 1013.1
03 11:53 NW 5 10.00 Fair CLR 71.1 44.1 38% 29.97 1014.0
03 10:53 Vrbl 3 10.00 Fair CLR 66 43 66 34 43% 29.99 1014.6
03 09:53 W 5 10.00 Fair CLR 63 39.9 43% 30 1015.0
03 08:53 Calm 10.00 Fair CLR 57.9 39.9 51% 30.02 1015.6
03 07:53 Calm 10.00 Fair CLR 50 37 61% 30.02 1015.4
03 06:53 E 3 10.00 Fair CLR 39 35.1 86% 30.03 1015.9
03 05:53 Calm 10.00 Fair CLR 35.1 34 96% 30.01 1015.8
03 04:53 Calm 10.00 Fair CLR 37 34 46.9 35.1 89% 30.01 1015.1
03 03:53 Calm 10.00 Fair CLR 37.9 35.1 89% 30.01 1015.1
Date Time (pdt) Wind (mph) Vis. (mi.) Weather Sky Cond. Air Dwpt Max. Min. Relative Humidity Wind Chill (°F) Heat Index (°F) altimeter (in) sea level (mb) 1 hr 3 hr 6 hr
6 hour
Temperature (ºF) Pressure Precipitation (in)